sensor_id;sensor_type;location;lat;lon;timestamp;noise_LAeq;noise_LA_min;noise_LA_max;noise_LA01;noise_LA95
43787;Laerm;29409;49.306;8.500;2023-05-15T00:00:22;39.63;35.94;44.62;;
43787;Laerm;29409;49.306;8.500;2023-05-15T00:01:22;39.32;35.94;43.58;;
43787;Laerm;29409;49.306;8.500;2023-05-15T00:02:23;39.51;36.20;42.47;;
43787;Laerm;29409;49.306;8.500;2023-05-15T00:03:23;39.58;36.69;42.35;;
43787;Laerm;29409;49.306;8.500;2023-05-15T00:04:24;39.49;35.36;43.19;;
43787;Laerm;29409;49.306;8.500;2023-05-15T00:05:25;39.16;35.66;41.68;;
43787;Laerm;29409;49.306;8.500;2023-05-15T00:06:26;39.21;35.04;41.75;;
43787;Laerm;29409;49.306;8.500;2023-05-15T00:07:27;39.31;36.20;41.68;;
43787;Laerm;29409;49.306;8.500;2023-05-15T00:08:27;39.73;36.69;41.89;;
43787;Laerm;29409;49.306;8.500;2023-05-15T00:09:28;40.31;37.12;42.29;;
43787;Laerm;29409;49.306;8.500;2023-05-15T00:10:28;40.34;37.12;43.81;;
43787;Laerm;29409;49.306;8.500;2023-05-15T00:11:28;39.72;36.69;42.59;;
43787;Laerm;29409;49.306;8.500;2023-05-15T00:12:28;39.78;36.91;42.22;;
43787;Laerm;29409;49.306;8.500;2023-05-15T00:13:29;39.67;36.20;41.82;;
43787;Laerm;29409;49.306;8.500;2023-05-15T00:14:29;39.66;36.69;41.89;;
43787;Laerm;29409;49.306;8.500;2023-05-15T00:15:29;39.91;37.12;43.86;;
43787;Laerm;29409;49.306;8.500;2023-05-15T00:16:30;40.17;37.32;42.53;;
43787;Laerm;29409;49.306;8.500;2023-05-15T00:17:30;40.44;37.52;43.34;;
43787;Laerm;29409;49.306;8.500;2023-05-15T00:18:30;40.25;37.52;43.14;;
43787;Laerm;29409;49.306;8.500;2023-05-15T00:19:30;40.26;36.91;42.98;;
43787;Laerm;29409;49.306;8.500;2023-05-15T00:20:31;39.70;36.69;42.03;;
43787;Laerm;29409;49.306;8.500;2023-05-15T00:21:31;39.86;36.20;42.16;;
43787;Laerm;29409;49.306;8.500;2023-05-15T00:22:31;39.79;36.45;42.22;;
43787;Laerm;29409;49.306;8.500;2023-05-15T00:23:31;39.94;36.91;48.18;;
43787;Laerm;29409;49.306;8.500;2023-05-15T00:24:32;41.82;38.21;44.97;;
43787;Laerm;29409;49.306;8.500;2023-05-15T00:25:32;39.93;36.69;42.35;;
43787;Laerm;29409;49.306;8.500;2023-05-15T00:26:33;39.59;35.66;42.22;;
43787;Laerm;29409;49.306;8.500;2023-05-15T00:27:33;40.03;36.91;42.47;;
43787;Laerm;29409;49.306;8.500;2023-05-15T00:28:33;40.12;36.91;42.65;;
43787;Laerm;29409;49.306;8.500;2023-05-15T00:29:33;39.70;36.20;42.47;;
43787;Laerm;29409;49.306;8.500;2023-05-15T00:30:34;39.82;36.69;44.39;;
43787;Laerm;29409;49.306;8.500;2023-05-15T00:31:34;39.89;36.45;42.59;;
43787;Laerm;29409;49.306;8.500;2023-05-15T00:32:34;39.76;36.20;42.24;;
43787;Laerm;29409;49.306;8.500;2023-05-15T00:33:34;39.72;36.45;41.89;;
43787;Laerm;29409;49.306;8.500;2023-05-15T00:34:35;41.30;37.52;44.43;;
43787;Laerm;29409;49.306;8.500;2023-05-15T00:35:35;41.01;37.52;44.69;;
43787;Laerm;29409;49.306;8.500;2023-05-15T00:36:35;41.51;36.69;47.00;;
43787;Laerm;29409;49.306;8.500;2023-05-15T00:37:35;39.88;36.91;42.35;;
43787;Laerm;29409;49.306;8.500;2023-05-15T00:38:36;41.58;37.12;45.01;;
43787;Laerm;29409;49.306;8.500;2023-05-15T00:39:36;41.64;37.88;44.54;;
43787;Laerm;29409;49.306;8.500;2023-05-15T00:40:36;40.86;37.32;44.23;;
43787;Laerm;29409;49.306;8.500;2023-05-15T00:41:37;40.19;36.69;42.41;;
43787;Laerm;29409;49.306;8.500;2023-05-15T00:42:39;39.93;37.32;42.24;;
43787;Laerm;29409;49.306;8.500;2023-05-15T00:43:40;40.07;37.17;42.41;;
43787;Laerm;29409;49.306;8.500;2023-05-15T00:44:41;40.93;37.70;44.23;;
43787;Laerm;29409;49.306;8.500;2023-05-15T00:45:42;40.39;37.12;42.88;;
43787;Laerm;29409;49.306;8.500;2023-05-15T00:46:43;40.14;36.10;42.82;;
43787;Laerm;29409;49.306;8.500;2023-05-15T00:47:44;39.98;36.69;44.65;;
43787;Laerm;29409;49.306;8.500;2023-05-15T00:48:45;40.13;36.91;42.03;;
43787;Laerm;29409;49.306;8.500;2023-05-15T00:49:48;39.92;36.20;42.82;;
43787;Laerm;29409;49.306;8.500;2023-05-15T00:50:49;39.83;36.69;42.35;;
43787;Laerm;29409;49.306;8.500;2023-05-15T00:51:50;40.61;37.70;44.15;;
43787;Laerm;29409;49.306;8.500;2023-05-15T00:52:51;40.39;37.32;42.53;;
43787;Laerm;29409;49.306;8.500;2023-05-15T00:53:52;40.92;37.52;43.34;;
43787;Laerm;29409;49.306;8.500;2023-05-15T00:54:52;40.72;37.32;44.11;;
43787;Laerm;29409;49.306;8.500;2023-05-15T00:55:53;40.26;37.32;42.29;;
43787;Laerm;29409;49.306;8.500;2023-05-15T00:56:56;40.55;36.91;42.76;;
43787;Laerm;29409;49.306;8.500;2023-05-15T00:57:57;40.98;37.88;45.01;;
43787;Laerm;29409;49.306;8.500;2023-05-15T00:58:58;41.54;38.47;44.27;;
43787;Laerm;29409;49.306;8.500;2023-05-15T01:00:02;41.07;38.21;44.94;;
43787;Laerm;29409;49.306;8.500;2023-05-15T01:01:09;40.84;37.70;43.04;;
43787;Laerm;29409;49.306;8.500;2023-05-15T01:02:10;40.70;38.05;43.04;;
43787;Laerm;29409;49.306;8.500;2023-05-15T01:03:11;40.71;37.70;42.59;;
43787;Laerm;29409;49.306;8.500;2023-05-15T01:04:11;41.45;38.05;46.23;;
43787;Laerm;29409;49.306;8.500;2023-05-15T01:05:11;41.58;37.52;44.43;;
43787;Laerm;29409;49.306;8.500;2023-05-15T01:06:12;40.99;38.37;43.94;;
43787;Laerm;29409;49.306;8.500;2023-05-15T01:07:12;41.07;37.88;42.82;;
43787;Laerm;29409;49.306;8.500;2023-05-15T01:08:34;41.72;38.37;43.90;;
43787;Laerm;29409;49.306;8.500;2023-05-15T01:09:35;40.72;37.32;42.98;;
43787;Laerm;29409;49.306;8.500;2023-05-15T01:10:36;39.75;36.69;42.22;;
43787;Laerm;29409;49.306;8.500;2023-05-15T01:11:36;40.26;37.12;45.27;;
43787;Laerm;29409;49.306;8.500;2023-05-15T01:12:37;40.47;37.52;43.29;;
43787;Laerm;29409;49.306;8.500;2023-05-15T01:13:39;40.12;37.32;43.77;;
43787;Laerm;29409;49.306;8.500;2023-05-15T01:14:39;39.64;36.45;44.27;;
43787;Laerm;29409;49.306;8.500;2023-05-15T01:15:40;39.40;36.69;41.82;;
43787;Laerm;29409;49.306;8.500;2023-05-15T01:16:40;39.37;35.66;42.82;;
43787;Laerm;29409;49.306;8.500;2023-05-15T01:17:41;39.38;35.94;41.68;;
43787;Laerm;29409;49.306;8.500;2023-05-15T01:18:41;39.65;36.45;41.96;;
43787;Laerm;29409;49.306;8.500;2023-05-15T01:19:41;40.36;37.52;52.02;;
43787;Laerm;29409;49.306;8.500;2023-05-15T01:20:56;40.19;36.45;42.29;;
43787;Laerm;29409;49.306;8.500;2023-05-15T01:27:26;39.99;36.69;43.63;;
43787;Laerm;29409;49.306;8.500;2023-05-15T01:28:33;39.44;35.66;41.82;;
43787;Laerm;29409;49.306;8.500;2023-05-15T01:29:40;39.44;36.20;42.19;;
43787;Laerm;29409;49.306;8.500;2023-05-15T01:30:43;40.13;36.91;43.54;;
43787;Laerm;29409;49.306;8.500;2023-05-15T01:31:45;40.42;36.91;43.39;;
43787;Laerm;29409;49.306;8.500;2023-05-15T01:33:49;39.97;36.69;42.03;;
43787;Laerm;29409;49.306;8.500;2023-05-15T01:35:00;39.72;36.69;41.82;;
43787;Laerm;29409;49.306;8.500;2023-05-15T01:36:07;39.84;36.45;42.24;;
43787;Laerm;29409;49.306;8.500;2023-05-15T01:37:11;39.58;36.20;42.29;;
43787;Laerm;29409;49.306;8.500;2023-05-15T01:39:14;40.14;36.69;43.04;;
43787;Laerm;29409;49.306;8.500;2023-05-15T01:40:18;44.50;38.81;57.76;;
43787;Laerm;29409;49.306;8.500;2023-05-15T01:41:28;43.48;40.36;47.91;;
43787;Laerm;29409;49.306;8.500;2023-05-15T01:42:35;42.23;39.81;44.51;;
43787;Laerm;29409;49.306;8.500;2023-05-15T01:43:38;41.24;36.69;43.04;;
43787;Laerm;29409;49.306;8.500;2023-05-15T01:44:45;41.79;39.21;43.99;;
43787;Laerm;29409;49.306;8.500;2023-05-15T01:45:50;41.73;38.21;44.87;;
43787;Laerm;29409;49.306;8.500;2023-05-15T01:46:51;41.38;37.88;44.15;;
43787;Laerm;29409;49.306;8.500;2023-05-15T01:47:53;42.01;38.95;43.86;;
43787;Laerm;29409;49.306;8.500;2023-05-15T01:48:54;41.66;39.08;43.99;;
43787;Laerm;29409;49.306;8.500;2023-05-15T01:49:57;41.20;38.02;43.34;;
43787;Laerm;29409;49.306;8.500;2023-05-15T01:51:01;41.41;38.02;43.94;;
43787;Laerm;29409;49.306;8.500;2023-05-15T01:52:07;41.24;37.88;43.68;;
43787;Laerm;29409;49.306;8.500;2023-05-15T01:53:09;40.98;37.70;43.37;;
43787;Laerm;29409;49.306;8.500;2023-05-15T01:54:10;41.47;37.70;45.66;;
43787;Laerm;29409;49.306;8.500;2023-05-15T01:55:11;41.36;38.67;47.10;;
43787;Laerm;29409;49.306;8.500;2023-05-15T01:56:13;41.05;38.52;43.44;;
43787;Laerm;29409;49.306;8.500;2023-05-15T01:57:14;41.65;38.37;44.31;;
43787;Laerm;29409;49.306;8.500;2023-05-15T01:58:15;43.51;39.58;51.43;;
43787;Laerm;29409;49.306;8.500;2023-05-15T01:59:16;42.71;39.21;46.80;;
43787;Laerm;29409;49.306;8.500;2023-05-15T02:00:18;40.75;38.05;42.93;;
43787;Laerm;29409;49.306;8.500;2023-05-15T02:01:18;40.74;37.52;43.29;;
43787;Laerm;29409;49.306;8.500;2023-05-15T02:02:18;40.69;36.91;44.15;;
43787;Laerm;29409;49.306;8.500;2023-05-15T02:03:19;39.83;37.12;42.35;;
43787;Laerm;29409;49.306;8.500;2023-05-15T02:04:20;39.83;36.91;42.00;;
43787;Laerm;29409;49.306;8.500;2023-05-15T02:05:21;39.82;37.12;42.03;;
43787;Laerm;29409;49.306;8.500;2023-05-15T02:06:22;39.62;35.94;42.16;;
43787;Laerm;29409;49.306;8.500;2023-05-15T02:07:23;39.77;36.45;43.49;;
43787;Laerm;29409;49.306;8.500;2023-05-15T02:08:24;39.62;36.45;42.59;;
43787;Laerm;29409;49.306;8.500;2023-05-15T02:09:25;39.57;36.91;42.09;;
43787;Laerm;29409;49.306;8.500;2023-05-15T02:10:25;39.59;36.69;48.96;;
43787;Laerm;29409;49.306;8.500;2023-05-15T02:11:26;39.69;36.69;41.53;;
43787;Laerm;29409;49.306;8.500;2023-05-15T02:12:27;39.79;36.20;42.35;;
43787;Laerm;29409;49.306;8.500;2023-05-15T02:13:28;39.70;36.69;41.89;;
43787;Laerm;29409;49.306;8.500;2023-05-15T02:14:29;40.23;35.94;45.07;;
43787;Laerm;29409;49.306;8.500;2023-05-15T02:15:30;40.87;37.32;45.54;;
43787;Laerm;29409;49.306;8.500;2023-05-15T02:16:30;40.43;36.91;44.69;;
43787;Laerm;29409;49.306;8.500;2023-05-15T02:17:31;41.09;37.70;48.02;;
43787;Laerm;29409;49.306;8.500;2023-05-15T02:18:31;40.38;37.12;42.93;;
43787;Laerm;29409;49.306;8.500;2023-05-15T02:19:32;40.79;37.88;42.93;;
43787;Laerm;29409;49.306;8.500;2023-05-15T02:20:32;40.51;37.70;42.59;;
43787;Laerm;29409;49.306;8.500;2023-05-15T02:21:33;41.50;38.37;48.13;;
43787;Laerm;29409;49.306;8.500;2023-05-15T02:22:33;40.74;38.05;44.83;;
43787;Laerm;29409;49.306;8.500;2023-05-15T02:23:33;40.56;37.32;44.23;;
43787;Laerm;29409;49.306;8.500;2023-05-15T02:24:34;40.26;37.70;42.09;;
43787;Laerm;29409;49.306;8.500;2023-05-15T02:28:02;40.27;37.32;42.53;;
43787;Laerm;29409;49.306;8.500;2023-05-15T02:29:09;40.25;37.52;42.59;;
43787;Laerm;29409;49.306;8.500;2023-05-15T02:33:33;40.53;37.87;43.39;;
43787;Laerm;29409;49.306;8.500;2023-05-15T02:36:35;40.77;37.35;42.93;;
43787;Laerm;29409;49.306;8.500;2023-05-15T02:37:38;41.17;38.52;43.24;;
43787;Laerm;29409;49.306;8.500;2023-05-15T02:38:44;41.11;38.18;42.93;;
43787;Laerm;29409;49.306;8.500;2023-05-15T02:39:45;41.28;38.52;43.29;;
43787;Laerm;29409;49.306;8.500;2023-05-15T02:40:48;41.08;38.05;44.90;;
43787;Laerm;29409;49.306;8.500;2023-05-15T02:41:49;40.50;38.05;42.41;;
43787;Laerm;29409;49.306;8.500;2023-05-15T02:42:51;40.21;37.70;43.19;;
43787;Laerm;29409;49.306;8.500;2023-05-15T02:43:52;40.75;38.05;43.54;;
43787;Laerm;29409;49.306;8.500;2023-05-15T02:44:54;46.04;38.18;75.43;;
43787;Laerm;29409;49.306;8.500;2023-05-15T02:45:55;41.41;38.05;49.91;;
43787;Laerm;29409;49.306;8.500;2023-05-15T02:46:56;42.33;38.67;56.54;;
43787;Laerm;29409;49.306;8.500;2023-05-15T02:47:56;42.34;38.81;51.01;;
43787;Laerm;29409;49.306;8.500;2023-05-15T02:48:57;43.13;39.46;52.03;;
43787;Laerm;29409;49.306;8.500;2023-05-15T02:49:58;43.14;39.58;49.10;;
43787;Laerm;29409;49.306;8.500;2023-05-15T02:50:59;42.13;37.70;46.55;;
43787;Laerm;29409;49.306;8.500;2023-05-15T02:52:00;41.96;39.34;47.04;;
43787;Laerm;29409;49.306;8.500;2023-05-15T02:53:01;41.79;38.67;48.13;;
43787;Laerm;29409;49.306;8.500;2023-05-15T02:54:01;43.48;39.81;48.48;;
43787;Laerm;29409;49.306;8.500;2023-05-15T02:55:01;42.35;39.08;50.74;;
43787;Laerm;29409;49.306;8.500;2023-05-15T02:56:02;42.33;39.21;56.05;;
43787;Laerm;29409;49.306;8.500;2023-05-15T02:57:02;42.08;39.21;47.30;;
43787;Laerm;29409;49.306;8.500;2023-05-15T02:58:02;42.09;39.08;48.64;;
43787;Laerm;29409;49.306;8.500;2023-05-15T02:59:03;42.40;39.81;51.06;;
43787;Laerm;29409;49.306;8.500;2023-05-15T03:00:04;42.26;39.34;44.65;;
43787;Laerm;29409;49.306;8.500;2023-05-15T03:01:10;42.63;39.92;46.23;;
43787;Laerm;29409;49.306;8.500;2023-05-15T03:02:11;41.84;39.34;44.15;;
43787;Laerm;29409;49.306;8.500;2023-05-15T03:03:11;42.29;39.58;44.94;;
43787;Laerm;29409;49.306;8.500;2023-05-15T03:04:14;42.93;40.62;45.83;;
43787;Laerm;29409;49.306;8.500;2023-05-15T03:05:15;42.70;40.33;44.97;;
43787;Laerm;29409;49.306;8.500;2023-05-15T03:06:15;42.71;40.71;44.43;;
43787;Laerm;29409;49.306;8.500;2023-05-15T03:07:17;42.93;40.80;44.87;;
43787;Laerm;29409;49.306;8.500;2023-05-15T03:08:18;43.09;40.89;47.24;;
43787;Laerm;29409;49.306;8.500;2023-05-15T03:09:18;42.87;40.71;46.20;;
43787;Laerm;29409;49.306;8.500;2023-05-15T03:10:18;43.11;40.71;46.30;;
43787;Laerm;29409;49.306;8.500;2023-05-15T03:11:22;43.21;40.80;47.67;;
43787;Laerm;29409;49.306;8.500;2023-05-15T03:12:22;42.41;40.13;44.80;;
43787;Laerm;29409;49.306;8.500;2023-05-15T03:13:23;48.38;40.33;65.02;;
43787;Laerm;29409;49.306;8.500;2023-05-15T03:14:23;42.53;39.58;44.73;;
43787;Laerm;29409;49.306;8.500;2023-05-15T03:15:24;43.32;40.53;48.54;;
43787;Laerm;29409;49.306;8.500;2023-05-15T03:16:24;43.16;41.06;47.06;;
43787;Laerm;29409;49.306;8.500;2023-05-15T03:17:25;43.25;40.62;46.97;;
43787;Laerm;29409;49.306;8.500;2023-05-15T03:18:26;43.52;41.61;47.06;;
43787;Laerm;29409;49.306;8.500;2023-05-15T03:19:26;43.96;42.16;46.50;;
43787;Laerm;29409;49.306;8.500;2023-05-15T03:20:26;44.36;42.41;49.43;;
43787;Laerm;29409;49.306;8.500;2023-05-15T03:21:26;43.80;41.89;45.72;;
43787;Laerm;29409;49.306;8.500;2023-05-15T03:22:27;44.80;42.22;52.02;;
43787;Laerm;29409;49.306;8.500;2023-05-15T03:23:27;43.93;41.82;48.70;;
43787;Laerm;29409;49.306;8.500;2023-05-15T03:24:27;43.62;41.46;45.36;;
43787;Laerm;29409;49.306;8.500;2023-05-15T03:25:27;43.74;41.68;49.11;;
43787;Laerm;29409;49.306;8.500;2023-05-15T03:26:28;47.52;40.98;62.37;;
43787;Laerm;29409;49.306;8.500;2023-05-15T03:27:28;43.93;42.09;47.36;;
43787;Laerm;29409;49.306;8.500;2023-05-15T03:28:28;44.82;41.96;53.86;;
43787;Laerm;29409;49.306;8.500;2023-05-15T03:29:28;45.68;42.03;54.15;;
43787;Laerm;29409;49.306;8.500;2023-05-15T03:30:29;44.42;42.22;49.12;;
43787;Laerm;29409;49.306;8.500;2023-05-15T03:31:29;45.10;42.59;51.56;;
43787;Laerm;29409;49.306;8.500;2023-05-15T03:32:29;44.94;41.75;52.84;;
43787;Laerm;29409;49.306;8.500;2023-05-15T03:33:30;44.97;41.89;51.47;;
43787;Laerm;29409;49.306;8.500;2023-05-15T03:34:30;44.97;42.03;51.24;;
43787;Laerm;29409;49.306;8.500;2023-05-15T03:35:31;45.16;41.96;52.07;;
43787;Laerm;29409;49.306;8.500;2023-05-15T03:36:31;44.19;41.30;51.80;;
43787;Laerm;29409;49.306;8.500;2023-05-15T03:37:31;43.90;41.30;54.70;;
43787;Laerm;29409;49.306;8.500;2023-05-15T03:38:32;47.97;40.43;59.10;;
43787;Laerm;29409;49.306;8.500;2023-05-15T03:39:32;43.32;39.92;50.30;;
43787;Laerm;29409;49.306;8.500;2023-05-15T03:40:32;42.19;39.92;47.06;;
43787;Laerm;29409;49.306;8.500;2023-05-15T03:41:33;41.84;39.35;44.27;;
43787;Laerm;29409;49.306;8.500;2023-05-15T03:42:33;42.80;40.33;49.79;;
43787;Laerm;29409;49.306;8.500;2023-05-15T03:43:33;43.03;39.70;50.02;;
43787;Laerm;29409;49.306;8.500;2023-05-15T03:44:33;43.23;40.36;47.83;;
43787;Laerm;29409;49.306;8.500;2023-05-15T03:45:35;43.37;40.23;50.43;;
43787;Laerm;29409;49.306;8.500;2023-05-15T03:46:36;43.08;40.03;47.65;;
43787;Laerm;29409;49.306;8.500;2023-05-15T03:47:39;44.94;40.13;52.22;;
43787;Laerm;29409;49.306;8.500;2023-05-15T03:48:41;44.52;39.81;53.85;;
43787;Laerm;29409;49.306;8.500;2023-05-15T03:49:42;45.12;40.23;58.93;;
43787;Laerm;29409;49.306;8.500;2023-05-15T03:50:42;45.18;39.92;58.04;;
43787;Laerm;29409;49.306;8.500;2023-05-15T03:51:43;42.84;40.62;51.44;;
43787;Laerm;29409;49.306;8.500;2023-05-15T03:52:43;45.12;42.41;49.81;;
43787;Laerm;29409;49.306;8.500;2023-05-15T03:53:44;46.62;43.77;54.28;;
43787;Laerm;29409;49.306;8.500;2023-05-15T03:54:44;45.28;43.24;52.44;;
43787;Laerm;29409;49.306;8.500;2023-05-15T03:55:44;45.25;42.93;48.87;;
43787;Laerm;29409;49.306;8.500;2023-05-15T03:56:45;46.26;44.11;51.34;;
43787;Laerm;29409;49.306;8.500;2023-05-15T03:57:45;45.21;42.98;49.33;;
43787;Laerm;29409;49.306;8.500;2023-05-15T03:58:45;44.88;42.59;49.45;;
43787;Laerm;29409;49.306;8.500;2023-05-15T03:59:45;45.43;42.88;50.09;;
43787;Laerm;29409;49.306;8.500;2023-05-15T04:00:46;51.88;43.24;67.57;;
43787;Laerm;29409;49.306;8.500;2023-05-15T04:01:46;46.14;43.99;50.98;;
43787;Laerm;29409;49.306;8.500;2023-05-15T04:02:46;45.86;43.34;65.60;;
43787;Laerm;29409;49.306;8.500;2023-05-15T04:03:47;45.17;43.34;50.65;;
43787;Laerm;29409;49.306;8.500;2023-05-15T04:04:47;45.16;43.04;51.06;;
43787;Laerm;29409;49.306;8.500;2023-05-15T04:05:47;45.08;43.14;50.16;;
43787;Laerm;29409;49.306;8.500;2023-05-15T04:06:49;44.67;42.93;47.52;;
43787;Laerm;29409;49.306;8.500;2023-05-15T04:07:50;45.15;43.14;47.50;;
43787;Laerm;29409;49.306;8.500;2023-05-15T04:08:50;45.18;43.49;49.18;;
43787;Laerm;29409;49.306;8.500;2023-05-15T04:09:50;44.92;42.65;50.18;;
43787;Laerm;29409;49.306;8.500;2023-05-15T04:10:50;47.48;43.19;58.58;;
43787;Laerm;29409;49.306;8.500;2023-05-15T04:11:51;45.41;43.44;56.17;;
43787;Laerm;29409;49.306;8.500;2023-05-15T04:12:51;45.81;43.49;50.68;;
43787;Laerm;29409;49.306;8.500;2023-05-15T04:13:51;46.03;44.15;51.32;;
43787;Laerm;29409;49.306;8.500;2023-05-15T04:14:52;46.36;44.07;53.47;;
43787;Laerm;29409;49.306;8.500;2023-05-15T04:15:52;46.27;44.11;50.92;;
43787;Laerm;29409;49.306;8.500;2023-05-15T04:16:52;47.23;43.81;52.80;;
43787;Laerm;29409;49.306;8.500;2023-05-15T04:17:53;48.24;44.31;56.46;;
43787;Laerm;29409;49.306;8.500;2023-05-15T04:18:53;46.23;43.90;52.33;;
43787;Laerm;29409;49.306;8.500;2023-05-15T04:19:54;47.14;43.90;57.86;;
43787;Laerm;29409;49.306;8.500;2023-05-15T04:20:54;47.62;44.80;52.02;;
43787;Laerm;29409;49.306;8.500;2023-05-15T04:21:54;47.77;45.20;52.69;;
43787;Laerm;29409;49.306;8.500;2023-05-15T04:22:54;46.57;44.07;50.60;;
43787;Laerm;29409;49.306;8.500;2023-05-15T04:23:55;46.84;44.54;52.09;;
43787;Laerm;29409;49.306;8.500;2023-05-15T04:24:55;46.49;44.31;51.22;;
43787;Laerm;29409;49.306;8.500;2023-05-15T04:25:56;46.92;44.19;53.76;;
43787;Laerm;29409;49.306;8.500;2023-05-15T04:26:56;47.36;44.51;58.51;;
43787;Laerm;29409;49.306;8.500;2023-05-15T04:27:56;47.99;44.76;53.64;;
43787;Laerm;29409;49.306;8.500;2023-05-15T04:28:57;48.73;44.80;57.02;;
43787;Laerm;29409;49.306;8.500;2023-05-15T04:29:57;47.87;44.43;51.48;;
43787;Laerm;29409;49.306;8.500;2023-05-15T04:30:57;46.97;44.62;50.37;;
43787;Laerm;29409;49.306;8.500;2023-05-15T04:31:58;47.21;44.76;54.14;;
43787;Laerm;29409;49.306;8.500;2023-05-15T04:32:59;46.99;43.99;58.26;;
43787;Laerm;29409;49.306;8.500;2023-05-15T04:33:59;46.25;43.72;49.59;;
43787;Laerm;29409;49.306;8.500;2023-05-15T04:35:00;47.04;44.23;52.36;;
43787;Laerm;29409;49.306;8.500;2023-05-15T04:36:01;47.06;44.15;52.50;;
43787;Laerm;29409;49.306;8.500;2023-05-15T04:37:01;46.59;44.07;52.87;;
43787;Laerm;29409;49.306;8.500;2023-05-15T04:38:02;47.60;45.11;51.41;;
43787;Laerm;29409;49.306;8.500;2023-05-15T04:39:02;46.82;44.31;51.70;;
43787;Laerm;29409;49.306;8.500;2023-05-15T04:40:03;48.05;45.39;55.21;;
43787;Laerm;29409;49.306;8.500;2023-05-15T04:41:03;47.72;45.20;51.48;;
43787;Laerm;29409;49.306;8.500;2023-05-15T04:42:04;47.20;44.87;50.18;;
43787;Laerm;29409;49.306;8.500;2023-05-15T04:43:04;47.81;44.94;52.85;;
43787;Laerm;29409;49.306;8.500;2023-05-15T04:44:04;47.35;44.65;51.72;;
43787;Laerm;29409;49.306;8.500;2023-05-15T04:45:05;47.58;44.51;52.61;;
43787;Laerm;29409;49.306;8.500;2023-05-15T04:46:06;49.09;44.80;59.85;;
43787;Laerm;29409;49.306;8.500;2023-05-15T04:47:06;49.67;44.31;60.35;;
43787;Laerm;29409;49.306;8.500;2023-05-15T04:48:07;48.23;45.11;53.18;;
43787;Laerm;29409;49.306;8.500;2023-05-15T04:49:07;47.06;44.39;51.58;;
43787;Laerm;29409;49.306;8.500;2023-05-15T04:50:07;46.94;43.63;56.84;;
43787;Laerm;29409;49.306;8.500;2023-05-15T04:51:08;45.93;43.90;50.89;;
43787;Laerm;29409;49.306;8.500;2023-05-15T04:52:08;46.83;44.07;53.73;;
43787;Laerm;29409;49.306;8.500;2023-05-15T04:53:08;45.50;42.93;54.65;;
43787;Laerm;29409;49.306;8.500;2023-05-15T04:54:09;45.61;43.63;51.34;;
43787;Laerm;29409;49.306;8.500;2023-05-15T04:55:09;45.90;43.76;52.34;;
43787;Laerm;29409;49.306;8.500;2023-05-15T04:56:09;45.53;43.39;50.72;;
43787;Laerm;29409;49.306;8.500;2023-05-15T04:57:10;45.54;43.14;54.29;;
43787;Laerm;29409;49.306;8.500;2023-05-15T04:58:12;45.41;43.09;55.06;;
43787;Laerm;29409;49.306;8.500;2023-05-15T04:59:13;45.41;43.29;55.06;;
43787;Laerm;29409;49.306;8.500;2023-05-15T05:00:14;45.08;42.98;48.58;;
43787;Laerm;29409;49.306;8.500;2023-05-15T05:01:15;44.96;42.95;49.96;;
43787;Laerm;29409;49.306;8.500;2023-05-15T05:02:15;45.04;43.00;49.69;;
43787;Laerm;29409;49.306;8.500;2023-05-15T05:03:18;45.40;43.39;48.76;;
43787;Laerm;29409;49.306;8.500;2023-05-15T05:04:19;47.45;43.24;57.53;;
43787;Laerm;29409;49.306;8.500;2023-05-15T05:05:19;45.15;43.24;48.87;;
43787;Laerm;29409;49.306;8.500;2023-05-15T05:06:20;44.40;42.41;50.32;;
43787;Laerm;29409;49.306;8.500;2023-05-15T05:07:20;44.50;42.76;48.34;;
43787;Laerm;29409;49.306;8.500;2023-05-15T05:08:20;44.48;42.71;49.33;;
43787;Laerm;29409;49.306;8.500;2023-05-15T05:09:20;44.08;41.96;46.87;;
43787;Laerm;29409;49.306;8.500;2023-05-15T05:10:21;45.01;42.71;55.04;;
43787;Laerm;29409;49.306;8.500;2023-05-15T05:11:21;45.03;42.42;49.83;;
43787;Laerm;29409;49.306;8.500;2023-05-15T05:12:21;44.70;42.22;49.25;;
43787;Laerm;29409;49.306;8.500;2023-05-15T05:13:22;45.26;42.47;53.80;;
43787;Laerm;29409;49.306;8.500;2023-05-15T05:14:22;44.74;42.41;50.96;;
43787;Laerm;29409;49.306;8.500;2023-05-15T05:15:22;44.23;42.03;51.62;;
43787;Laerm;29409;49.306;8.500;2023-05-15T05:16:22;46.42;42.71;55.25;;
43787;Laerm;29409;49.306;8.500;2023-05-15T05:17:24;52.49;42.35;69.56;;
43787;Laerm;29409;49.306;8.500;2023-05-15T05:18:24;43.73;41.53;48.66;;
43787;Laerm;29409;49.306;8.500;2023-05-15T05:19:24;44.06;41.46;48.25;;
43787;Laerm;29409;49.306;8.500;2023-05-15T05:20:27;49.12;41.14;64.94;;
43787;Laerm;29409;49.306;8.500;2023-05-15T05:21:27;44.92;41.75;55.59;;
43787;Laerm;29409;49.306;8.500;2023-05-15T05:22:29;46.90;41.30;59.30;;
43787;Laerm;29409;49.306;8.500;2023-05-15T05:23:29;44.20;41.38;51.24;;
43787;Laerm;29409;49.306;8.500;2023-05-15T05:24:33;43.98;41.22;56.71;;
43787;Laerm;29409;49.306;8.500;2023-05-15T05:25:34;51.60;41.75;67.66;;
43787;Laerm;29409;49.306;8.500;2023-05-15T05:26:35;52.46;41.68;81.89;;
43787;Laerm;29409;49.306;8.500;2023-05-15T05:27:35;43.90;41.75;49.16;;
43787;Laerm;29409;49.306;8.500;2023-05-15T05:28:35;43.83;40.62;57.26;;
43787;Laerm;29409;49.306;8.500;2023-05-15T05:29:35;43.68;41.14;50.66;;
43787;Laerm;29409;49.306;8.500;2023-05-15T05:30:36;44.77;40.98;55.55;;
43787;Laerm;29409;49.306;8.500;2023-05-15T05:31:36;48.49;41.11;57.93;;
43787;Laerm;29409;49.306;8.500;2023-05-15T05:32:36;44.74;41.06;51.14;;
43787;Laerm;29409;49.306;8.500;2023-05-15T05:33:37;44.11;40.98;54.27;;
43787;Laerm;29409;49.306;8.500;2023-05-15T05:34:37;44.36;41.30;51.40;;
43787;Laerm;29409;49.306;8.500;2023-05-15T05:35:37;44.12;41.46;51.29;;
43787;Laerm;29409;49.306;8.500;2023-05-15T05:36:37;49.46;40.33;72.70;;
43787;Laerm;29409;49.306;8.500;2023-05-15T05:37:38;48.83;39.70;66.03;;
43787;Laerm;29409;49.306;8.500;2023-05-15T05:38:38;43.96;40.98;53.88;;
43787;Laerm;29409;49.306;8.500;2023-05-15T05:39:38;43.82;40.23;63.59;;
43787;Laerm;29409;49.306;8.500;2023-05-15T05:40:39;43.95;39.46;64.11;;
43787;Laerm;29409;49.306;8.500;2023-05-15T05:41:39;42.66;39.34;56.68;;
43787;Laerm;29409;49.306;8.500;2023-05-15T05:42:39;42.93;39.92;48.21;;
43787;Laerm;29409;49.306;8.500;2023-05-15T05:43:40;42.53;39.58;47.32;;
43787;Laerm;29409;49.306;8.500;2023-05-15T05:44:40;42.79;39.46;48.20;;
43787;Laerm;29409;49.306;8.500;2023-05-15T05:45:41;44.23;38.81;61.86;;
43787;Laerm;29409;49.306;8.500;2023-05-15T05:46:41;44.25;39.21;50.02;;
43787;Laerm;29409;49.306;8.500;2023-05-15T05:47:41;43.41;39.81;49.30;;
43787;Laerm;29409;49.306;8.500;2023-05-15T05:48:41;46.06;39.92;69.15;;
43787;Laerm;29409;49.306;8.500;2023-05-15T05:49:42;43.66;40.62;51.75;;
43787;Laerm;29409;49.306;8.500;2023-05-15T05:50:42;42.80;40.23;47.04;;
43787;Laerm;29409;49.306;8.500;2023-05-15T05:51:44;42.79;39.92;53.57;;
43787;Laerm;29409;49.306;8.500;2023-05-15T05:52:44;49.88;40.33;77.65;;
43787;Laerm;29409;49.306;8.500;2023-05-15T05:53:44;47.09;40.89;60.94;;
43787;Laerm;29409;49.306;8.500;2023-05-15T05:54:45;43.34;40.03;50.48;;
43787;Laerm;29409;49.306;8.500;2023-05-15T05:55:47;44.01;41.68;48.31;;
43787;Laerm;29409;49.306;8.500;2023-05-15T05:56:47;43.03;40.71;46.71;;